Ashley, Michigan
Current Conditions -  °F | °C
As of 5:34 AM on Friday 24 Oct 2014 (Local Time) from KAMN Reporting Station
Scattered Clouds Scattered Clouds  
Wind Chill: 35°   Ceiling: Unl
Heat Index: 38°   Visibility: 7mi
Dew Point: 37°   Wind: 5mph
Humidity: 95%   Direction: 220°SW
Pressure: 30.05"   Gusts: NA
Location:  43.19°N, 84.47°W
Report Text: KAMN 240934Z AUTO 22004KT 7SM SCT055 03/03 A3005 RMK AO2 T00340027
Loading
Personal Weather Stations






























Interactive Weather Map New forecast layout! Learn more

10-Day Weather Forecast

Advertisements
Track Severe Weather on mobile